Flight Track Log - Related Links

Times and Time Zones

All times are in EDT time to prevent confusion due to time zone crossing. See the SKW6330 flight status page for this flight to view local times or setup timezone preferences in your user account.

Time Position Orientation Groundspeed Altitude Reporting Facility
EDT Latitude Longitude Course Direction KTS MPH feet Rate Location/Type
Mon 07:34:00 PM 34.2331 -118.5380 340° North  Level Estimated
Mon 07:35:00 PM 34.3057 -118.5707 340° North  Level Estimated
Mon 07:36:00 PM 34.3784 -118.6034 340° North  Level Estimated
Mon 07:37:00 PM 34.4510 -118.6361 340° North  Level Estimated
Mon 07:38:00 PM 34.5236 -118.6689 340° North  Level Estimated
Mon 07:39:00 PM 34.5962 -118.7018 340° North  Level Estimated
Mon 07:40:00 PM 34.6688 -118.7347 340° North  Level Estimated
Mon 07:41:00 PM 34.7414 -118.7677 340° North  Level Estimated
Mon 07:42:00 PM 34.8139 -118.8007 340° North  Level Estimated
Mon 07:43:00 PM 34.8865 -118.8338 339° North  Level Estimated
Mon 07:44:00 PM 34.9590 -118.8669 339° North  Level Estimated
Mon 07:45:00 PM 35.0316 -118.9001 339° North  Level Estimated
Mon 07:46:00 PM 35.1041 -118.9334 339° North  Level Estimated
Mon 07:47:00 PM 35.1767 -118.9668 339° North  Level Estimated
Mon 07:48:00 PM 35.2492 -119.0001 339° North  Level Estimated
Mon 07:49:00 PM 35.3217 -119.0336 339° North  Level Estimated
Mon 07:50:00 PM 35.3942 -119.0671 339° North  Level Estimated
Mon 07:51:00 PM 35.4667 -119.1007 339° North  Level Estimated
Mon 07:52:00 PM 35.5392 -119.1343 339° North  Level Estimated
Mon 07:53:00 PM 35.6116 -119.1680 339° North  Level Estimated
Mon 07:54:00 PM 35.6841 -119.2017 339° North  Level Estimated
Mon 07:55:00 PM 35.7565 -119.2355 339° North  Level Estimated
Mon 07:56:00 PM 35.8290 -119.2694 339° North  Level Estimated
Mon 07:57:00 PM 35.9014 -119.3034 339° North  Level Estimated
Mon 07:58:00 PM 35.9738 -119.3373 339° North  Level Estimated
Mon 07:59:00 PM 36.0462 -119.3714 339° North  Level Estimated
Mon 08:00:00 PM 36.1186 -119.4055 339° North  Level Estimated
Mon 08:01:00 PM 36.1910 -119.4397 339° North  Level Estimated
Mon 08:02:00 PM 36.2634 -119.4740 339° North  Level Estimated
Mon 08:03:00 PM 36.3358 -119.5083 339° North  Level Estimated
Mon 08:04:00 PM 36.4082 -119.5426 339° North  Level Estimated
Mon 08:05:00 PM 36.4805 -119.5771 339° North  Level Estimated
Mon 08:06:00 PM 36.5529 -119.6116 339° North  Level Estimated
Mon 08:07:00 PM 36.6252 -119.6462 339° North  Level Estimated
Mon 08:08:00 PM 36.6976 -119.6808 339° North  Level Estimated
Mon 08:09:00 PM 36.7699 -119.7155 339° North  Level Estimated
Mon 08:10:00 PM 36.7764 -119.7187 339° North  Level Estimated
Mon 08:11:00 PM 36.7764 -119.7187 148° Southeast  Level Estimated
Mon 08:12:00 PM 36.7764 -119.7187 148° Southeast  Level Estimated
Mon 08:13:00 PM 36.7764 -119.7187 148° Southeast  Level Estimated
Mon 08:14:00 PM 36.7764 -119.7187 148° Southeast  Level Estimated
Mon 08:15:00 PM 36.7764 -119.7187 148° Southeast  Level Estimated
Mon 08:16:00 PM 36.7764 -119.7187 148° Southeast  Level Estimated
Mon 08:17:00 PM 36.7764 -119.7187 148° Southeast  Level Estimated
Mon 08:18:00 PM 36.7764 -119.7187 148° Southeast  Level Estimated
Mon 08:19:00 PM 36.7764 -119.7187 148° Southeast  Level Estimated
Mon 08:20:00 PM 36.7764 -119.7187 148° Southeast  Level Estimated
Mon 08:21:00 PM 36.7764 -119.7187 148° Southeast  Level Estimated

Login

Don't have an account? Register now (free) for customized features, flight alerts, and more!